Time;durP1;ratioP1;P1;durP2;ratioP2;P2;SDS_P1;SDS_P2;PMS_P1;PMS_P2;Temp;Humidity;BMP_temperature;BMP_pressure;BME280_temperature;BME280_humidity;BME280_pressure;Samples;Min_cycle;Max_cycle;Signal;HPM_P1;HPM_P2
2023/05/01 00:00:58;;;;;;;4.10;2.20;;;;;;;10.74;55.22;99828.41;109558;1252;59440;-68
2023/05/01 00:03:26;;;;;;;5.90;2.50;;;;;;;10.72;55.23;99831.79;109579;1253;66365;-67
2023/05/01 00:05:58;;;;;;;3.20;2.00;;;;;;;10.70;55.18;99837.98;109404;1258;58133;-68
2023/05/01 00:08:26;;;;;;;3.40;2.20;;;;;;;10.66;55.30;99839.16;109261;1253;58042;-70
2023/05/01 00:10:53;;;;;;;3.70;2.30;;;;;;;10.65;55.23;99848.69;109559;1254;67246;-67
2023/05/01 00:13:21;;;;;;;4.50;2.30;;;;;;;10.64;55.42;99850.13;109570;1254;59461;-67
2023/05/01 00:15:49;;;;;;;3.50;2.10;;;;;;;10.64;55.43;99854.40;109557;1254;64884;-68
2023/05/01 00:18:16;;;;;;;6.70;2.10;;;;;;;10.64;55.37;99856.99;109178;1254;58266;-68
2023/05/01 00:20:43;;;;;;;4.80;2.10;;;;;;;10.66;55.34;99853.98;109595;1253;58236;-67
2023/05/01 00:23:11;;;;;;;5.90;2.50;;;;;;;10.64;55.35;99857.33;109449;1254;67303;-67
2023/05/01 00:25:38;;;;;;;3.00;2.10;;;;;;;10.62;55.37;99858.25;109437;1257;60480;-67
2023/05/01 00:28:05;;;;;;;4.40;2.10;;;;;;;10.60;55.52;99860.81;109520;1252;66387;-67
2023/05/01 00:30:33;;;;;;;3.70;2.20;;;;;;;10.62;55.39;99862.45;109439;1254;58092;-67
2023/05/01 00:33:00;;;;;;;7.90;2.30;;;;;;;10.65;55.28;99860.99;109578;1254;58220;-67
2023/05/01 00:35:28;;;;;;;3.70;2.20;;;;;;;10.66;55.20;99866.36;109472;1254;66439;-68
2023/05/01 00:37:55;;;;;;;3.60;2.10;;;;;;;10.65;55.23;99868.75;109227;1254;60691;-68
2023/05/01 00:40:22;;;;;;;6.00;2.10;;;;;;;10.61;55.13;99872.60;109384;1254;64846;-67
2023/05/01 00:42:49;;;;;;;3.90;2.10;;;;;;;10.58;55.15;99874.90;109379;1256;58227;-67
2023/05/01 00:45:16;;;;;;;3.90;2.00;;;;;;;10.57;55.11;99875.73;109392;1254;58236;-67
2023/05/01 00:47:42;;;;;;;3.90;2.20;;;;;;;10.56;55.14;99878.15;109399;1254;66086;-67
2023/05/01 00:50:10;;;;;;;5.30;2.50;;;;;;;10.54;55.05;99878.11;109427;1254;59630;-67
2023/05/01 00:52:36;;;;;;;3.60;2.10;;;;;;;10.54;55.13;99881.95;109375;1254;66191;-68
2023/05/01 00:55:04;;;;;;;4.00;2.10;;;;;;;10.54;55.02;99883.40;109215;1254;58180;-68
2023/05/01 00:57:32;;;;;;;3.90;2.00;;;;;;;10.55;54.97;99885.60;109226;1254;58059;-67
2023/05/01 00:59:59;;;;;;;4.30;2.40;;;;;;;10.54;55.07;99884.43;109411;1254;67316;-67
2023/05/01 01:02:26;;;;;;;3.30;2.00;;;;;;;10.54;55.09;99889.18;109410;1254;59541;-67
2023/05/01 01:04:53;;;;;;;4.80;2.20;;;;;;;10.55;55.00;99893.91;109398;1254;64825;-67
2023/05/01 01:07:32;;;;;;;4.00;2.20;;;;;;;10.55;54.96;99898.77;109353;1254;58128;-67
2023/05/01 01:10:34;;;;;;;4.60;2.20;;;;;;;10.55;54.90;99901.27;109326;1254;58238;-67
2023/05/01 01:13:07;;;;;;;2.90;2.20;;;;;;;10.55;54.95;99904.58;109136;1253;67273;-67
2023/05/01 01:15:43;;;;;;;3.80;2.30;;;;;;;10.53;54.92;99904.11;109180;1254;60520;-67
2023/05/01 01:18:44;;;;;;;4.60;1.90;;;;;;;10.52;54.84;99902.91;109256;1254;64992;-67
2023/05/01 01:21:21;;;;;;;2.50;2.00;;;;;;;10.52;54.82;99903.61;108977;1256;58148;-67
2023/05/01 01:24:40;;;;;;;4.10;2.20;;;;;;;10.51;54.79;99904.05;109180;1254;58135;-68
2023/05/01 01:27:29;;;;;;;4.30;2.20;;;;;;;10.48;54.74;99907.30;109313;1256;66107;-67
2023/05/01 01:30:19;;;;;;;3.90;2.40;;;;;;;10.46;54.67;99909.13;109434;1254;60159;-67
2023/05/01 01:33:08;;;;;;;4.60;2.50;;;;;;;10.45;54.63;99912.52;109245;1253;66065;-67
2023/05/01 01:35:35;;;;;;;5.60;2.20;;;;;;;10.43;54.58;99912.67;109140;1256;58210;-71
2023/05/01 01:38:05;;;;;;;4.80;2.20;;;;;;;10.43;54.71;99915.54;109293;1254;58077;-67
2023/05/01 01:40:37;;;;;;;5.40;2.00;;;;;;;10.43;54.70;99920.27;109147;1254;66075;-68
2023/05/01 01:43:05;;;;;;;5.10;2.30;;;;;;;10.42;54.78;99921.41;109092;1254;59460;-67
2023/05/01 01:45:36;;;;;;;5.00;2.40;;;;;;;10.40;54.69;99922.29;109219;1254;65170;-69
2023/05/01 01:48:04;;;;;;;3.70;2.20;;;;;;;10.39;54.69;99929.23;109272;1254;58239;-67
2023/05/01 01:50:31;;;;;;;3.40;2.10;;;;;;;10.37;54.71;99926.12;109134;1254;58059;-72
2023/05/01 01:52:59;;;;;;;4.10;2.20;;;;;;;10.34;54.58;99924.20;109263;1260;67176;-67
2023/05/01 01:55:26;;;;;;;5.30;2.30;;;;;;;10.33;54.64;99921.46;109161;1254;60183;-69
2023/05/01 01:57:53;;;;;;;4.30;2.20;;;;;;;10.32;54.83;99922.96;109154;1254;65871;-67
2023/05/01 02:00:20;;;;;;;3.70;2.10;;;;;;;10.31;54.74;99916.48;109301;1254;58145;-68
2023/05/01 02:02:47;;;;;;;3.50;2.30;;;;;;;10.30;54.63;99911.65;109155;1254;58210;-68
2023/05/01 02:05:15;;;;;;;4.10;2.20;;;;;;;10.29;54.64;99909.52;109198;1254;67006;-67
2023/05/01 02:07:45;;;;;;;2.50;1.80;;;;;;;10.26;54.70;99912.53;109289;1254;59262;-68
2023/05/01 02:10:12;;;;;;;3.40;2.00;;;;;;;10.23;54.80;99918.45;109087;1259;66234;-67
2023/05/01 02:12:41;;;;;;;2.70;2.10;;;;;;;10.20;54.87;99920.23;109141;1254;58244;-70
2023/05/01 02:15:08;;;;;;;3.60;2.20;;;;;;;10.16;54.77;99921.34;109241;1254;58224;-67
2023/05/01 02:17:37;;;;;;;3.30;2.00;;;;;;;10.13;54.79;99921.94;109170;1254;67177;-67
2023/05/01 02:20:05;;;;;;;3.90;2.30;;;;;;;10.10;54.85;99925.66;109170;1254;60490;-68
2023/05/01 02:22:32;;;;;;;3.70;2.10;;;;;;;10.08;55.00;99927.48;109227;1254;66199;-68
2023/05/01 02:24:59;;;;;;;3.90;2.10;;;;;;;10.06;55.08;99930.94;109116;1257;58234;-68
2023/05/01 02:27:31;;;;;;;4.40;2.10;;;;;;;10.06;55.15;99928.52;109266;1254;58120;-68
2023/05/01 02:29:57;;;;;;;3.30;1.90;;;;;;;10.07;55.01;99927.76;109269;1254;65909;-67
2023/05/01 02:32:25;;;;;;;4.30;2.50;;;;;;;10.06;54.91;99927.98;109309;1254;59520;-68
2023/05/01 02:34:52;;;;;;;2.90;1.90;;;;;;;10.07;54.93;99924.17;109171;1256;65127;-67
2023/05/01 02:37:19;;;;;;;3.10;2.10;;;;;;;10.08;54.85;99922.67;109170;1256;58131;-67
2023/05/01 02:39:46;;;;;;;2.60;2.00;;;;;;;10.10;54.83;99925.04;109118;1256;58318;-68
2023/05/01 02:42:12;;;;;;;5.10;2.00;;;;;;;10.10;54.85;99922.90;109170;1256;65989;-68
2023/05/01 02:44:43;;;;;;;3.40;1.80;;;;;;;10.08;54.78;99924.32;109398;1255;60379;-68
2023/05/01 02:47:10;;;;;;;3.80;1.90;;;;;;;10.05;54.78;99925.05;109068;1255;66140;-68
2023/05/01 02:49:37;;;;;;;3.00;1.80;;;;;;;10.03;54.77;99920.45;109008;1256;58165;-67
2023/05/01 02:52:04;;;;;;;2.90;1.70;;;;;;;10.02;54.82;99918.60;109068;1256;58160;-67
2023/05/01 02:54:31;;;;;;;3.90;1.90;;;;;;;10.02;54.92;99924.37;109139;1257;65828;-69
2023/05/01 02:56:58;;;;;;;4.30;1.80;;;;;;;10.03;54.82;99924.13;109155;1256;59366;-68
2023/05/01 02:59:25;;;;;;;5.30;1.80;;;;;;;10.04;54.79;99920.76;109132;1261;66166;-67
2023/05/01 03:01:52;;;;;;;3.80;2.00;;;;;;;10.04;54.84;99920.60;109134;1257;58121;-68
2023/05/01 03:04:19;;;;;;;4.50;2.10;;;;;;;10.02;54.78;99920.52;109272;1256;58275;-68
2023/05/01 03:06:46;;;;;;;2.50;1.60;;;;;;;10.03;54.82;99922.75;109380;1255;65921;-69
2023/05/01 03:09:14;;;;;;;3.80;2.10;;;;;;;10.06;54.71;99923.80;109294;1256;60862;-68
2023/05/01 03:11:40;;;;;;;2.90;1.60;;;;;;;10.08;54.69;99924.34;109200;1256;65144;-68
2023/05/01 03:14:07;;;;;;;3.20;1.60;;;;;;;10.09;54.57;99922.95;109330;1256;58121;-67
2023/05/01 03:16:34;;;;;;;6.30;1.90;;;;;;;10.10;54.46;99924.51;109406;1256;58224;-68
2023/05/01 03:19:01;;;;;;;3.70;1.90;;;;;;;10.12;54.42;99927.47;109252;1255;66081;-67
2023/05/01 03:21:28;;;;;;;3.50;1.60;;;;;;;10.14;54.46;99927.46;109382;1255;60522;-67
2023/05/01 03:23:55;;;;;;;3.90;1.80;;;;;;;10.15;54.27;99930.33;109253;1256;65799;-67
2023/05/01 03:26:21;;;;;;;2.80;1.70;;;;;;;10.15;53.99;99935.30;109358;1256;58162;-68
2023/05/01 03:28:49;;;;;;;2.50;1.70;;;;;;;10.14;53.88;99933.26;109150;1256;58056;-68
2023/05/01 03:31:16;;;;;;;3.30;1.70;;;;;;;10.15;53.72;99934.11;109228;1256;66229;-68
2023/05/01 03:33:43;;;;;;;3.70;1.90;;;;;;;10.16;53.53;99931.40;109181;1256;60468;-67
2023/05/01 03:36:12;;;;;;;4.80;2.00;;;;;;;10.18;53.50;99930.27;109230;1256;66341;-68
2023/05/01 03:38:39;;;;;;;3.00;1.80;;;;;;;10.21;53.52;99929.86;109156;1256;58217;-72
2023/05/01 03:41:07;;;;;;;4.60;2.00;;;;;;;10.25;53.25;99933.92;109203;1256;58267;-68
2023/05/01 03:43:52;;;;;;;3.50;1.90;;;;;;;10.31;53.00;99933.92;109221;1256;67251;-68
2023/05/01 03:46:31;;;;;;;3.20;1.80;;;;;;;10.37;52.74;99933.62;109109;1257;59636;-68
2023/05/01 03:48:59;;;;;;;5.20;1.80;;;;;;;10.41;52.55;99938.58;109124;1256;65064;-68
2023/05/01 03:51:27;;;;;;;3.30;2.00;;;;;;;10.44;52.57;99940.98;109109;1256;58697;-70
2023/05/01 03:53:57;;;;;;;2.60;1.70;;;;;;;10.49;52.29;99941.42;109039;1256;58052;-68
2023/05/01 03:56:25;;;;;;;5.20;1.90;;;;;;;10.52;52.09;99942.52;109114;1256;66225;-72
2023/05/01 03:58:52;;;;;;;5.30;2.00;;;;;;;10.57;51.86;99935.43;109127;1257;59321;-68
2023/05/01 04:01:19;;;;;;;4.90;2.00;;;;;;;10.63;51.67;99936.69;109127;1261;66108;-68
2023/05/01 04:03:47;;;;;;;5.20;2.10;;;;;;;10.68;51.32;99928.16;109110;1257;58266;-68
2023/05/01 04:06:16;;;;;;;4.20;1.80;;;;;;;10.72;51.07;99928.14;109141;1256;58228;-69
2023/05/01 04:08:43;;;;;;;4.00;1.90;;;;;;;10.76;50.87;99925.00;109018;1256;65929;-68
2023/05/01 04:11:10;;;;;;;2.40;1.80;;;;;;;10.81;50.71;99927.91;109132;1257;60495;-68
2023/05/01 04:13:37;;;;;;;3.20;2.10;;;;;;;10.84;50.23;99928.68;109155;1256;66138;-67
2023/05/01 04:16:05;;;;;;;4.30;1.80;;;;;;;10.86;50.01;99930.46;109141;1255;58240;-68
2023/05/01 04:18:32;;;;;;;3.10;1.60;;;;;;;10.90;49.92;99927.10;109185;1256;58539;-67
2023/05/01 04:20:59;;;;;;;4.30;1.70;;;;;;;10.95;49.80;99929.13;109162;1256;67506;-67
2023/05/01 04:23:25;;;;;;;3.30;1.80;;;;;;;11.04;49.42;99929.42;109232;1256;59642;-67
2023/05/01 04:25:55;;;;;;;6.50;1.90;;;;;;;11.06;49.27;99931.95;109165;1255;66422;-67
2023/05/01 04:28:22;;;;;;;4.50;1.90;;;;;;;11.10;49.14;99932.73;109130;1256;58177;-68
2023/05/01 04:30:49;;;;;;;3.40;1.80;;;;;;;11.10;49.06;99933.03;109165;1256;58184;-67
2023/05/01 04:33:16;;;;;;;3.90;1.70;;;;;;;11.13;48.90;99937.73;109171;1256;67370;-67
2023/05/01 04:35:43;;;;;;;5.10;1.70;;;;;;;11.16;48.54;99937.13;109240;1256;60213;-71
2023/05/01 04:38:10;;;;;;;3.10;1.90;;;;;;;11.18;48.51;99934.42;109171;1256;65013;-68
2023/05/01 04:40:38;;;;;;;4.10;1.70;;;;;;;11.23;48.34;99934.16;109104;1255;58161;-71
2023/05/01 04:43:05;;;;;;;3.10;1.60;;;;;;;11.28;47.99;99931.11;109140;1256;58461;-72
2023/05/01 04:45:33;;;;;;;6.60;1.80;;;;;;;11.35;47.66;99934.38;109129;1257;67295;-68
2023/05/01 04:48:01;;;;;;;3.30;1.50;;;;;;;11.43;47.41;99938.92;109152;1255;59663;-68
2023/05/01 04:50:28;;;;;;;4.30;1.60;;;;;;;11.51;47.27;99940.36;109101;1257;66183;-69
2023/05/01 04:52:56;;;;;;;4.50;1.60;;;;;;;11.59;46.90;99943.11;109120;1258;58065;-68
2023/05/01 04:55:23;;;;;;;2.20;1.50;;;;;;;11.67;46.72;99948.70;109133;1255;58185;-69
2023/05/01 04:58:02;;;;;;;3.40;1.70;;;;;;;11.75;46.43;99949.42;109157;1256;67096;-68
2023/05/01 05:00:29;;;;;;;4.70;1.90;;;;;;;11.84;46.43;99953.96;109134;1256;59793;-68
2023/05/01 05:02:56;;;;;;;2.30;1.60;;;;;;;11.92;46.35;99957.22;109129;1256;66196;-69
2023/05/01 05:05:25;;;;;;;2.50;1.70;;;;;;;12.00;45.90;99958.08;109069;1257;58134;-69
2023/05/01 05:07:52;;;;;;;2.70;1.50;;;;;;;12.07;45.62;99961.03;109104;1255;58068;-70
2023/05/01 05:10:37;;;;;;;2.30;1.30;;;;;;;12.15;45.63;99960.80;109131;1256;67263;-69
2023/05/01 05:13:22;;;;;;;2.20;1.60;;;;;;;12.24;45.20;99965.58;109164;1256;60332;-67
2023/05/01 05:15:57;;;;;;;4.70;1.80;;;;;;;12.35;45.20;99971.80;109184;1256;66128;-67
2023/05/01 05:18:24;;;;;;;3.20;1.90;;;;;;;12.46;44.86;99975.70;109080;1257;58150;-68
2023/05/01 05:20:51;;;;;;;4.90;1.90;;;;;;;12.56;44.67;99974.58;109156;1255;58090;-69
2023/05/01 05:23:22;;;;;;;5.10;2.00;;;;;;;12.68;44.52;99978.52;109132;1256;67658;-70
2023/05/01 05:25:49;;;;;;;5.30;2.10;;;;;;;12.79;43.96;99985.65;109174;1255;60714;-69
2023/05/01 05:28:18;;;;;;;3.90;1.90;;;;;;;12.87;43.44;99986.83;109201;1256;66223;-70
2023/05/01 05:30:46;;;;;;;4.30;2.10;;;;;;;12.97;43.48;99987.25;109128;1257;58174;-70
2023/05/01 05:33:15;;;;;;;6.80;2.20;;;;;;;13.06;43.05;99985.70;109141;1259;58035;-70
2023/05/01 05:35:44;;;;;;;10.10;2.50;;;;;;;13.14;42.93;99983.66;109128;1257;67378;-71
2023/05/01 05:38:14;;;;;;;8.50;2.70;;;;;;;13.23;43.19;99988.02;109142;1257;60192;-69
2023/05/01 05:40:48;;;;;;;7.60;2.70;;;;;;;13.30;42.89;99990.70;109085;1257;64809;-71
2023/05/01 05:43:22;;;;;;;3.90;2.50;;;;;;;13.38;42.97;99994.50;109065;1257;58140;-69
2023/05/01 05:46:00;;;;;;;5.80;2.30;;;;;;;13.44;42.89;100003.09;109047;1256;58193;-68
2023/05/01 05:48:29;;;;;;;4.40;2.40;;;;;;;13.53;43.00;100006.64;109111;1257;67363;-67
2023/05/01 05:51:00;;;;;;;3.30;2.10;;;;;;;13.60;43.21;100013.05;109041;1257;60718;-69
2023/05/01 05:53:30;;;;;;;4.50;2.60;;;;;;;13.67;43.49;100018.50;109023;1257;64953;-68
2023/05/01 05:55:59;;;;;;;4.40;2.80;;;;;;;13.75;43.33;100021.96;109131;1257;58108;-69
2023/05/01 05:58:30;;;;;;;4.90;3.00;;;;;;;13.80;43.47;100026.27;109080;1257;58244;-66
2023/05/01 06:00:59;;;;;;;7.30;3.40;;;;;;;13.86;43.93;100027.11;109025;1257;67302;-68
2023/05/01 06:03:28;;;;;;;5.60;3.20;;;;;;;13.93;44.01;100025.02;109212;1256;60529;-67
2023/05/01 06:06:00;;;;;;;5.90;3.40;;;;;;;13.99;44.28;100025.98;109213;1256;65940;-68
2023/05/01 06:08:31;;;;;;;7.80;3.50;;;;;;;14.07;44.73;100030.48;109027;1257;58202;-67
2023/05/01 06:11:01;;;;;;;6.90;3.20;;;;;;;14.14;44.82;100034.53;109058;1256;58271;-67
2023/05/01 06:13:32;;;;;;;6.70;3.30;;;;;;;14.21;44.90;100036.55;109166;1257;66006;-67
2023/05/01 06:16:01;;;;;;;8.30;3.80;;;;;;;14.24;45.51;100042.36;109136;1257;60479;-68
2023/05/01 06:18:31;;;;;;;6.50;3.90;;;;;;;14.26;46.08;100048.05;108997;1257;65843;-67
2023/05/01 06:21:01;;;;;;;6.20;3.60;;;;;;;14.24;46.32;100047.03;109081;1257;61797;-68
2023/05/01 06:23:32;;;;;;;6.10;4.00;;;;;;;14.24;46.82;100052.15;109085;1256;58133;-67
2023/05/01 06:26:22;;;;;;;7.50;4.00;;;;;;;14.25;47.28;100057.84;109141;1256;67043;-67
2023/05/01 06:28:53;;;;;;;5.50;4.20;;;;;;;14.30;47.71;100065.70;109054;1257;60521;-67
2023/05/01 06:31:23;;;;;;;6.30;3.90;;;;;;;14.41;47.98;100066.60;108967;1257;64981;-67
2023/05/01 06:33:55;;;;;;;14.10;5.10;;;;;;;14.49;47.91;100070.06;108981;1257;58108;-67
2023/05/01 06:44:04;;;;;;;18.00;4.60;;;;;;;14.63;48.30;100082.27;102416;1292;601507;-70
2023/05/01 06:46:31;;;;;;;7.20;3.90;;;;;;;14.65;48.34;100087.02;104288;1275;59344;-70
2023/05/01 06:48:58;;;;;;;8.20;4.20;;;;;;;14.70;48.33;100089.25;104684;1269;59142;-74
2023/05/01 06:51:25;;;;;;;11.80;4.10;;;;;;;14.70;48.20;100088.79;105055;1267;64939;-69
2023/05/01 06:53:52;;;;;;;8.70;4.20;;;;;;;14.70;48.48;100095.41;104311;1269;61016;-67
2023/05/01 06:56:20;;;;;;;10.50;4.30;;;;;;;14.74;48.40;100099.77;104298;1270;66277;-74
2023/05/01 06:58:47;;;;;;;8.30;4.10;;;;;;;14.78;48.38;100101.70;104382;1272;189577;-67
2023/05/01 07:01:16;;;;;;;5.90;3.80;;;;;;;14.86;48.39;100102.12;104571;1270;59218;-66
2023/05/01 07:03:43;;;;;;;7.40;4.10;;;;;;;14.95;48.75;100105.48;104772;1265;65759;-70
2023/05/01 07:06:10;;;;;;;5.10;3.90;;;;;;;15.04;48.60;100108.39;105110;1270;60726;-70
2023/05/01 07:08:38;;;;;;;6.70;4.10;;;;;;;15.12;48.56;100110.94;105866;1257;66467;-69
2023/05/01 07:11:04;;;;;;;6.90;3.70;;;;;;;15.17;48.42;100110.77;105861;1256;59681;-70
2023/05/01 07:13:31;;;;;;;5.90;3.60;;;;;;;15.18;48.29;100115.27;105726;1259;59548;-70
2023/05/01 07:15:58;;;;;;;8.50;3.90;;;;;;;15.22;48.37;100121.27;105853;1258;65761;-71
2023/05/01 07:18:25;;;;;;;7.20;3.40;;;;;;;15.30;48.37;100127.02;105824;1259;60779;-68
2023/05/01 07:20:52;;;;;;;6.20;3.70;;;;;;;15.34;47.87;100126.97;105802;1259;65418;-67
2023/05/01 07:23:19;;;;;;;6.30;3.40;;;;;;;15.31;47.80;100129.52;106027;1257;60462;-69
2023/05/01 07:25:46;;;;;;;4.60;3.00;;;;;;;15.34;47.87;100128.91;105208;1254;59640;-69
2023/05/01 07:28:14;;;;;;;6.10;3.00;;;;;;;15.36;47.84;100129.06;105519;1254;66048;-69
2023/05/01 07:30:41;;;;;;;6.90;3.00;;;;;;;15.42;48.08;100139.57;105896;1259;60685;-68
2023/05/01 07:33:08;;;;;;;7.70;3.00;;;;;;;15.55;47.99;100141.10;105151;1255;67132;-68
2023/05/01 07:35:35;;;;;;;13.10;3.70;;;;;;;15.67;47.56;100143.77;105244;1259;59797;-67
2023/05/01 07:38:08;;;;;;;8.50;3.20;;;;;;;15.73;47.41;100142.95;105448;1259;59644;-67
2023/05/01 07:40:37;;;;;;;11.90;3.40;;;;;;;15.81;47.55;100147.83;105489;1255;65422;-67
2023/05/01 07:43:04;;;;;;;4.40;3.00;;;;;;;15.88;47.51;100147.95;105655;1262;59667;-69
2023/05/01 07:45:31;;;;;;;6.20;2.80;;;;;;;15.97;47.65;100149.24;105757;1260;66521;-69
2023/05/01 07:47:58;;;;;;;4.80;2.90;;;;;;;16.10;47.48;100155.27;105896;1256;59618;-69
2023/05/01 07:50:25;;;;;;;3.60;2.80;;;;;;;16.23;47.23;100156.66;106240;1256;59589;-69
2023/05/01 07:52:52;;;;;;;8.10;2.90;;;;;;;16.33;46.53;100157.56;105694;1260;65549;-69
2023/05/01 07:55:21;;;;;;;7.80;3.00;;;;;;;16.43;46.81;100157.23;105908;1259;60902;-70
2023/05/01 07:57:48;;;;;;;6.60;2.90;;;;;;;16.56;46.47;100160.15;105627;1256;65556;-70
2023/05/01 08:00:15;;;;;;;8.00;3.00;;;;;;;16.68;45.80;100164.80;105563;1259;59695;-68
2023/05/01 08:02:43;;;;;;;4.40;2.70;;;;;;;16.77;45.78;100164.42;105620;1259;59630;-69
2023/05/01 08:05:16;;;;;;;5.80;2.90;;;;;;;16.91;45.77;100163.09;105464;1260;66900;-70
2023/05/01 08:07:43;;;;;;;;;;;;;;;17.03;45.15;100164.73;105218;1261;59970;-68
2023/05/01 08:10:11;;;;;;;4.50;2.70;;;;;;;17.10;44.72;100172.60;105412;1259;65520;-68
2023/05/01 08:12:38;;;;;;;5.50;2.60;;;;;;;17.09;44.25;100174.48;105390;1260;59662;-67
2023/05/01 08:15:06;;;;;;;7.90;2.70;;;;;;;17.10;43.77;100173.67;105389;1260;60001;-71
2023/05/01 08:17:36;;;;;;;5.20;2.50;;;;;;;17.10;43.65;100180.89;105625;1259;65583;-67
2023/05/01 08:20:04;;;;;;;7.40;2.50;;;;;;;17.11;43.85;100174.69;105194;1260;60140;-68
2023/05/01 08:22:31;;;;;;;20.30;4.40;;;;;;;17.22;44.09;100177.35;105523;1259;66721;-66
2023/05/01 08:24:58;;;;;;;69.90;7.60;;;;;;;17.37;43.92;100177.46;105348;1255;59685;-72
2023/05/01 08:27:25;;;;;;;8.00;2.60;;;;;;;17.52;43.62;100178.79;105405;1269;59715;-67
2023/05/01 08:29:52;;;;;;;15.60;3.90;;;;;;;17.63;43.16;100182.05;105378;1255;66806;-66
2023/05/01 08:32:19;;;;;;;11.60;3.40;;;;;;;17.69;42.98;100182.05;105447;1255;59536;-69
2023/05/01 08:34:45;;;;;;;81.30;8.20;;;;;;;17.75;42.99;100184.61;105416;1264;66697;-68
2023/05/01 08:37:13;;;;;;;7.70;2.50;;;;;;;17.82;42.77;100190.34;105509;1260;59618;-68
2023/05/01 08:39:40;;;;;;;5.50;2.40;;;;;;;17.85;42.76;100196.20;105555;1260;59689;-69
2023/05/01 08:42:07;;;;;;;3.10;2.10;;;;;;;17.97;42.43;100193.51;105408;1259;66880;-68
2023/05/01 08:44:37;;;;;;;2.70;2.00;;;;;;;18.15;42.12;100191.31;105069;1255;60987;-68
2023/05/01 08:47:12;;;;;;;5.00;2.30;;;;;;;18.32;41.74;100193.84;105809;1260;66351;-69
2023/05/01 08:49:40;;;;;;;6.40;2.20;;;;;;;18.40;41.40;100198.96;105731;1260;60715;-70
2023/05/01 08:52:07;;;;;;;4.20;2.00;;;;;;;18.41;41.41;100202.02;105732;1266;60904;-68
2023/05/01 08:54:34;;;;;;;3.60;2.40;;;;;;;18.37;40.86;100202.90;105702;1261;66858;-69
2023/05/01 08:57:02;;;;;;;3.50;2.00;;;;;;;18.30;40.74;100205.85;105192;1261;60751;-69
2023/05/01 08:59:30;;;;;;;4.10;2.20;;;;;;;18.26;41.14;100211.42;105313;1260;66165;-67
2023/05/01 09:02:00;;;;;;;4.80;2.30;;;;;;;18.29;40.89;100202.55;105350;1259;59712;-68
2023/05/01 09:04:31;;;;;;;5.80;2.30;;;;;;;18.35;40.96;100205.76;105724;1260;59670;-68
2023/05/01 09:07:01;;;;;;;4.40;2.20;;;;;;;18.46;40.85;100208.92;105585;1260;66882;-67
2023/05/01 09:09:28;;;;;;;9.70;2.50;;;;;;;18.61;40.72;100206.40;105234;1262;60750;-68
2023/05/01 09:12:07;;;;;;;4.20;2.30;;;;;;;18.71;39.78;100201.47;105680;1261;66319;-67
2023/05/01 09:14:34;;;;;;;5.20;2.00;;;;;;;18.68;39.90;100208.01;105563;1263;59753;-68
2023/05/01 09:17:01;;;;;;;2.80;1.90;;;;;;;18.68;39.87;100210.72;105588;1258;59752;-66
2023/05/01 09:19:28;;;;;;;3.30;2.10;;;;;;;18.67;39.74;100205.97;105103;1262;66749;-67
2023/05/01 09:21:54;;;;;;;5.70;1.90;;;;;;;18.78;40.06;100207.16;105221;1262;61285;-68
2023/05/01 09:24:24;;;;;;;5.10;2.30;;;;;;;18.96;39.27;100208.89;105301;1258;65587;-67
2023/05/01 09:26:51;;;;;;;3.60;2.00;;;;;;;19.01;39.04;100209.65;105327;1260;59715;-67
2023/05/01 09:29:37;;;;;;;2.90;1.80;;;;;;;19.13;38.83;100211.29;105292;1260;59760;-69
2023/05/01 09:32:20;;;;;;;11.70;3.20;;;;;;;19.27;38.72;100214.23;105398;1260;66898;-68
2023/05/01 09:34:48;;;;;;;;;;;;;;;19.42;38.34;100215.14;105344;1260;61013;-68
2023/05/01 09:37:27;;;;;;;16.60;3.20;;;;;;;19.48;38.35;100215.51;105393;1255;66298;-66
2023/05/01 09:40:05;;;;;;;204.60;15.40;;;;;;;19.63;37.85;100215.88;105018;1254;59675;-67
2023/05/01 09:42:34;;;;;;;116.50;11.20;;;;;;;19.90;37.07;100216.73;105308;1263;59654;-67
2023/05/01 09:45:03;;;;;;;127.00;12.20;;;;;;;20.03;36.59;100217.48;105496;1260;65689;-68
2023/05/01 09:47:30;;;;;;;76.80;7.50;;;;;;;20.15;35.68;100217.64;105722;1256;60999;-69
2023/05/01 09:49:58;;;;;;;10.90;2.10;;;;;;;20.19;35.50;100218.12;105654;1261;66890;-69
2023/05/01 09:52:27;;;;;;;4.00;1.90;;;;;;;20.32;35.77;100218.23;105814;1260;59673;-68
2023/05/01 09:55:16;;;;;;;3.20;1.60;;;;;;;20.45;35.27;100228.05;105584;1262;59874;-69
2023/05/01 09:57:45;;;;;;;2.90;1.70;;;;;;;20.49;34.88;100228.40;105860;1255;63651;-67
2023/05/01 10:00:14;;;;;;;3.70;1.70;;;;;;;20.52;35.13;100227.59;105345;1254;60081;-69
2023/05/01 10:02:46;;;;;;;4.40;1.60;;;;;;;20.53;34.35;100230.04;106602;1260;66423;-70
2023/05/01 10:05:14;;;;;;;5.50;1.50;;;;;;;20.53;34.56;100232.02;106098;1257;59539;-67
2023/05/01 10:07:57;;;;;;;2.00;1.30;;;;;;;20.66;34.44;100233.73;105746;1254;61395;-68
2023/05/01 10:10:25;;;;;;;4.60;1.80;;;;;;;20.86;34.08;100234.71;105437;1256;67100;-71
2023/05/01 10:12:52;;;;;;;2.20;1.50;;;;;;;21.07;33.61;100234.21;105680;1254;60703;-68
2023/05/01 10:15:19;;;;;;;4.50;1.60;;;;;;;21.25;33.59;100235.23;105422;1258;66586;-69
2023/05/01 10:17:52;;;;;;;5.70;1.70;;;;;;;21.45;33.06;100236.64;105536;1258;59624;-68
2023/05/01 10:20:20;;;;;;;2.20;1.30;;;;;;;21.57;31.76;100242.06;106197;1260;59637;-68
2023/05/01 10:22:47;;;;;;;3.80;1.30;;;;;;;21.59;31.36;100240.71;105613;1254;66711;-67
2023/05/01 10:25:15;;;;;;;4.40;1.30;;;;;;;21.54;30.86;100243.83;105503;1259;60707;-68
2023/05/01 10:27:42;;;;;;;3.40;1.40;;;;;;;21.49;30.79;100248.33;105599;1260;65735;-69
2023/05/01 10:30:10;;;;;;;3.80;1.30;;;;;;;21.47;30.65;100252.54;105338;1258;59641;-67
2023/05/01 10:32:37;;;;;;;1.70;1.20;;;;;;;21.53;30.81;100247.86;106065;1260;59759;-69
2023/05/01 10:35:10;;;;;;;1.70;1.30;;;;;;;21.68;30.57;100248.63;105200;1260;66557;-70
2023/05/01 10:37:47;;;;;;;3.00;1.50;;;;;;;21.86;30.55;100251.89;105200;1262;59678;-70
2023/05/01 10:40:47;;;;;;;4.30;1.40;;;;;;;22.07;30.34;100252.92;105679;1260;66292;-69
2023/05/01 10:43:18;;;;;;;2.80;1.10;;;;;;;22.30;30.54;100253.23;105230;1259;59819;-70
2023/05/01 10:45:46;;;;;;;3.60;1.30;;;;;;;22.38;30.39;100258.20;105233;1255;59900;-69
2023/05/01 10:48:38;;;;;;;3.50;1.20;;;;;;;22.48;30.53;100257.48;105568;1260;66952;-67
2023/05/01 10:51:14;;;;;;;6.20;1.30;;;;;;;22.69;30.18;100263.59;105225;1260;60916;-70
2023/05/01 10:53:41;;;;;;;3.00;1.30;;;;;;;22.90;29.56;100269.88;106225;1254;67032;-69
2023/05/01 10:56:22;;;;;;;5.90;1.20;;;;;;;23.14;28.99;100261.00;105503;1261;60447;-68
2023/05/01 10:58:52;;;;;;;3.10;1.00;;;;;;;23.32;28.19;100261.05;105572;1254;60536;-69
2023/05/01 11:01:33;;;;;;;2.80;1.10;;;;;;;23.42;28.16;100265.02;105595;1255;67659;-68
2023/05/01 11:04:03;;;;;;;1.20;0.80;;;;;;;23.57;27.77;100263.30;105430;1254;61042;-69
2023/05/01 11:06:30;;;;;;;4.30;1.10;;;;;;;23.72;27.74;100261.96;105608;1255;66437;-68
2023/05/01 11:08:58;;;;;;;2.00;1.10;;;;;;;23.91;27.90;100264.75;105584;1254;60462;-68
2023/05/01 11:11:25;;;;;;;2.50;1.10;;;;;;;24.05;27.96;100263.91;105538;1254;60564;-67
2023/05/01 11:14:02;;;;;;;6.70;1.30;;;;;;;24.21;27.43;100266.48;105519;1254;66487;-68
2023/05/01 11:16:36;;;;;;;4.60;1.00;;;;;;;24.34;27.09;100266.20;105542;1254;60930;-68
2023/05/01 11:19:12;;;;;;;4.60;1.10;;;;;;;24.45;26.64;100266.66;105384;1261;65222;-68
2023/05/01 11:21:40;;;;;;;2.10;1.00;;;;;;;24.53;26.21;100265.41;105283;1254;60441;-66
2023/05/01 11:24:08;;;;;;;1.80;1.00;;;;;;;24.58;25.89;100265.66;105466;1260;60565;-68
2023/05/01 11:26:39;;;;;;;1.50;1.00;;;;;;;24.67;25.87;100263.85;105360;1254;66739;-69
2023/05/01 11:29:10;;;;;;;3.20;1.00;;;;;;;24.75;25.01;100268.37;105507;1260;61071;-70
2023/05/01 11:31:37;;;;;;;2.30;1.20;;;;;;;24.74;24.22;100266.84;105449;1260;66132;-68
2023/05/01 11:34:08;;;;;;;3.10;1.00;;;;;;;24.63;23.67;100263.63;105476;1260;60455;-68
2023/05/01 11:36:48;;;;;;;2.50;1.00;;;;;;;24.53;23.82;100267.95;105447;1254;60489;-67
2023/05/01 11:39:16;;;;;;;2.50;1.20;;;;;;;24.45;24.51;100269.48;105417;1260;66483;-67
2023/05/01 11:41:43;;;;;;;6.00;1.20;;;;;;;24.49;24.83;100268.70;105452;1261;61054;-67